createdAt,value
2023-03-21T00:00:15.788Z,71.41
2023-03-21T00:03:55.117Z,72.11
2023-03-21T00:07:45.242Z,72.01
2023-03-21T00:11:37.623Z,72.55
2023-03-21T00:15:30.723Z,74.00
2023-03-21T00:19:04.255Z,74.86
2023-03-21T00:22:36.933Z,75.15
2023-03-21T00:26:27.565Z,74.61
2023-03-21T00:30:18.267Z,74.45
2023-03-21T00:34:08.227Z,75.47
2023-03-21T00:37:57.662Z,75.82
2023-03-21T00:41:47.243Z,75.81
2023-03-21T00:45:36.684Z,75.62
2023-03-21T00:49:27.102Z,75.27
2023-03-21T00:53:16.398Z,75.03
2023-03-21T00:57:05.818Z,74.94
2023-03-21T01:00:55.763Z,74.61
2023-03-21T01:04:35.708Z,75.46
2023-03-21T01:08:35.182Z,75.52
2023-03-21T01:12:31.276Z,76.68
2023-03-21T01:16:24.103Z,76.71
2023-03-21T01:20:13.581Z,76.02
2023-03-21T01:24:03.020Z,76.76
2023-03-21T01:27:53.133Z,75.69
2023-03-21T01:31:43.379Z,75.27
2023-03-21T01:35:40.915Z,74.65
2023-03-21T01:39:38.259Z,75.17
2023-03-21T01:43:28.311Z,75.67
2023-03-21T01:47:33.216Z,75.73
2023-03-21T01:51:19.689Z,76.39
2023-03-21T01:55:08.987Z,76.59
2023-03-21T01:58:58.367Z,76.61
2023-03-21T02:03:11.565Z,75.36
2023-03-21T02:07:03.887Z,75.81
2023-03-21T02:10:53.834Z,76.15
2023-03-21T02:14:48.157Z,76.66
2023-03-21T02:18:40.218Z,76.32
2023-03-21T02:22:38.641Z,75.92
2023-03-21T02:26:45.146Z,76.26
2023-03-21T02:30:50.801Z,76.58
2023-03-21T02:34:50.027Z,76.88
2023-03-21T02:38:45.028Z,76.89
2023-03-21T02:42:37.016Z,76.35
